Neerslag & Bliksem

Reclame

Sneeuwradar

Het weer

[Source: ADDS]
METAR
EBBR 262320Z 21014KT 9999 BKN046 11/07 Q1007 TEMPO 21017G27KT =
TAF
EBBR 262300Z 2700/2806 20013KT 9999 SCT014 BKN030 BECMG 2704/2706 20015G28KT TEMPO 2710/2714 4000 RA SHRA BKN008 BKN013CB TEMPO 2716/2724 20020G35KT 3500 SHRA SCT008 BKN013CB PROB30 TEMPO 2720/2724 1500 SHRAGS =
SR / SS: 06:29 / 17:20 UTC (Brussels 2017-02-27)
Go to top